Time;durP1;ratioP1;P1;durP2;ratioP2;P2;SDS_P1;SDS_P2;PMS_P1;PMS_P2;Temp;Humidity;BMP_temperature;BMP_pressure;BME280_temperature;BME280_humidity;BME280_pressure;Samples;Min_cycle;Max_cycle;Signal;HPM_P1;HPM_P2
2021/08/04 00:01:59;;;;;;;21.50;16.52;;;14.50;88.00;;;;;;5072323;28;20370;-86
2021/08/04 00:04:25;;;;;;;22.65;15.55;;;14.60;88.00;;;;;;5055790;28;20036;-86
2021/08/04 00:06:51;;;;;;;20.08;16.25;;;14.50;88.10;;;;;;5073091;28;20051;-85
2021/08/04 00:09:16;;;;;;;21.85;15.93;;;14.50;88.10;;;;;;5073630;28;20537;-86
2021/08/04 00:11:42;;;;;;;20.98;14.52;;;14.50;88.10;;;;;;5073443;28;20110;-86
2021/08/04 00:14:08;;;;;;;19.38;14.88;;;14.50;88.10;;;;;;5073985;28;20121;-86
2021/08/04 00:16:34;;;;;;;16.58;12.82;;;14.50;88.00;;;;;;5073472;28;20146;-85
2021/08/04 00:18:59;;;;;;;18.45;14.52;;;14.50;88.00;;;;;;5073451;28;20039;-85
2021/08/04 00:21:26;;;;;;;17.50;13.75;;;14.50;88.00;;;;;;5088907;28;20109;-85
2021/08/04 00:23:52;;;;;;;17.75;14.82;;;14.40;87.90;;;;;;5072165;28;20397;-85
2021/08/04 00:26:17;;;;;;;19.98;14.38;;;14.50;88.00;;;;;;5072040;28;20028;-85
2021/08/04 00:28:43;;;;;;;22.98;15.52;;;14.40;88.10;;;;;;5073422;28;20024;-86
2021/08/04 00:31:10;;;;;;;19.48;15.60;;;14.40;88.20;;;;;;5073552;28;20095;-85
2021/08/04 00:33:35;;;;;;;20.25;14.85;;;14.30;88.30;;;;;;5058319;28;20037;-86
2021/08/04 00:36:01;;;;;;;19.40;16.05;;;14.30;88.50;;;;;;5053125;28;20079;-86
2021/08/04 00:38:27;;;;;;;17.00;15.20;;;14.30;88.60;;;;;;5053014;28;20383;-86
2021/08/04 00:40:53;;;;;;;16.75;15.00;;;14.30;88.70;;;;;;5071709;28;20032;-85
2021/08/04 00:43:18;;;;;;;18.30;15.65;;;14.20;88.50;;;;;;5089076;28;20032;-86
2021/08/04 00:45:44;;;;;;;21.27;15.82;;;14.20;88.50;;;;;;5073135;28;20032;-85
2021/08/04 00:48:10;;;;;;;21.65;16.95;;;14.20;88.50;;;;;;5060965;28;20037;-85
2021/08/04 00:50:35;;;;;;;21.65;16.27;;;14.20;88.50;;;;;;5051811;28;20033;-85
2021/08/04 00:53:17;;;;;;;19.42;15.98;;;14.20;88.50;;;;;;5051747;28;20567;-85
2021/08/04 00:55:42;;;;;;;21.55;15.32;;;14.20;88.50;;;;;;5072768;28;20477;-85
2021/08/04 00:58:08;;;;;;;20.33;13.93;;;14.20;88.50;;;;;;5072762;28;20021;-85
2021/08/04 01:00:35;;;;;;;17.58;14.45;;;14.20;88.40;;;;;;5072774;28;20021;-85
2021/08/04 01:03:03;;;;;;;19.38;13.07;;;14.20;88.40;;;;;;5073007;28;20021;-85
2021/08/04 01:05:40;;;;;;;13.50;12.03;;;14.10;88.40;;;;;;5072700;28;20531;-85
2021/08/04 01:08:08;;;;;;;15.27;12.70;;;14.10;88.30;;;;;;5072857;28;20123;-85
2021/08/04 01:10:40;;;;;;;19.75;12.23;;;14.10;88.30;;;;;;5071708;28;20037;-85
2021/08/04 01:13:10;;;;;;;15.48;13.40;;;14.10;88.20;;;;;;5072369;28;20504;-85
2021/08/04 01:15:45;;;;;;;16.02;14.05;;;14.10;88.30;;;;;;5072912;28;20032;-86
2021/08/04 01:18:16;;;;;;;15.63;13.95;;;14.00;88.30;;;;;;5072955;28;20021;-85
2021/08/04 01:20:42;;;;;;;18.48;14.63;;;14.00;88.50;;;;;;5073236;28;20023;-85
2021/08/04 01:23:23;;;;;;;16.83;13.20;;;14.00;88.60;;;;;;5054781;28;20480;-86
2021/08/04 01:25:58;;;;;;;14.20;12.73;;;13.90;88.60;;;;;;5072584;28;20032;-86
2021/08/04 01:28:41;;;;;;;15.05;13.05;;;13.90;88.50;;;;;;5071566;28;20539;-86
2021/08/04 01:31:10;;;;;;;16.52;14.10;;;13.90;88.50;;;;;;5072703;28;20052;-87
2021/08/04 01:33:40;;;;;;;;;;;13.90;88.50;;;;;;5073156;28;20025;-87
2021/08/04 01:36:08;;;;;;;13.63;12.07;;;13.80;88.20;;;;;;5072537;28;19951;-86
2021/08/04 01:38:34;;;;;;;14.43;12.55;;;13.80;88.50;;;;;;5072573;28;20385;-86
2021/08/04 01:41:01;;;;;;;16.63;13.07;;;13.80;88.40;;;;;;5072592;28;20115;-86
2021/08/04 01:43:29;;;;;;;19.10;12.35;;;13.80;88.20;;;;;;5072731;28;20024;-86
2021/08/04 01:45:56;;;;;;;16.83;12.27;;;13.80;88.20;;;;;;5054665;28;20071;-87
2021/08/04 01:48:24;;;;;;;14.27;12.88;;;13.80;88.10;;;;;;5076239;28;20017;-86
2021/08/04 01:50:53;;;;;;;14.65;12.60;;;13.80;88.00;;;;;;5076101;28;20021;-86
2021/08/04 01:53:21;;;;;;;15.98;13.02;;;13.70;87.90;;;;;;5076474;28;20119;-86
2021/08/04 01:55:47;;;;;;;16.48;12.73;;;13.70;88.00;;;;;;5076013;28;20016;-86
2021/08/04 01:58:13;;;;;;;14.70;12.38;;;13.60;88.00;;;;;;5058097;28;20170;-86
2021/08/04 02:00:38;;;;;;;18.70;14.93;;;13.60;88.70;;;;;;5058674;28;20029;-86
2021/08/04 02:03:04;;;;;;;17.67;13.75;;;13.60;88.10;;;;;;5074637;28;20375;-86
2021/08/04 02:05:30;;;;;;;20.55;13.95;;;13.60;88.10;;;;;;5075824;28;20032;-86
2021/08/04 02:07:58;;;;;;;17.08;14.38;;;13.60;88.40;;;;;;5075522;28;20060;-86
2021/08/04 02:10:35;;;;;;;18.90;15.20;;;13.50;88.60;;;;;;5091354;28;20430;-86
2021/08/04 02:13:30;;;;;;;19.00;14.60;;;13.50;88.70;;;;;;5073841;28;20397;-86
2021/08/04 02:16:06;;;;;;;19.48;14.82;;;13.50;89.60;;;;;;5074794;28;20072;-86
2021/08/04 02:18:33;;;;;;;16.92;14.85;;;13.50;89.10;;;;;;5075632;28;20025;-85
2021/08/04 02:21:01;;;;;;;18.50;14.90;;;13.50;89.10;;;;;;5057700;28;20028;-85
2021/08/04 02:23:33;;;;;;;17.85;15.60;;;13.50;89.10;;;;;;5074186;28;20503;-86
2021/08/04 02:26:20;;;;;;;19.17;15.98;;;13.50;89.20;;;;;;5075295;28;20121;-85
2021/08/04 02:28:50;;;;;;;19.45;14.93;;;13.50;89.40;;;;;;5075411;28;20025;-86
2021/08/04 02:31:18;;;;;;;22.20;16.00;;;13.50;89.50;;;;;;5075203;28;20020;-86
2021/08/04 02:33:44;;;;;;;18.00;14.98;;;13.50;89.60;;;;;;5074010;28;20051;-86
2021/08/04 02:36:12;;;;;;;19.70;14.95;;;13.50;89.70;;;;;;5075268;28;20028;-86
2021/08/04 02:38:38;;;;;;;17.67;14.80;;;13.50;89.70;;;;;;5074141;28;20040;-86
2021/08/04 02:41:04;;;;;;;14.52;13.02;;;13.50;89.50;;;;;;5075112;28;20063;-86
2021/08/04 02:43:30;;;;;;;19.63;14.30;;;13.50;89.40;;;;;;5075191;28;20029;-86
2021/08/04 02:45:58;;;;;;;17.77;13.38;;;13.50;89.30;;;;;;5075051;28;20040;-86
2021/08/04 02:48:24;;;;;;;16.13;13.93;;;13.50;89.90;;;;;;5073851;28;20054;-86
2021/08/04 02:51:13;;;;;;;18.38;15.10;;;13.50;89.40;;;;;;5075124;28;20385;-86
2021/08/04 02:53:39;;;;;;;15.25;13.63;;;13.50;89.40;;;;;;5059672;28;20032;-86
2021/08/04 02:56:05;;;;;;;17.13;14.02;;;13.40;89.40;;;;;;5074925;28;20524;-86
2021/08/04 02:58:36;;;;;;;14.48;12.98;;;13.40;89.30;;;;;;5072481;28;20473;-86
2021/08/04 03:01:04;;;;;;;19.45;15.82;;;13.30;89.20;;;;;;5074578;28;20032;-85
2021/08/04 03:03:29;;;;;;;17.83;14.95;;;13.30;89.40;;;;;;5073219;28;20020;-86
2021/08/04 03:05:55;;;;;;;19.13;14.77;;;13.30;89.50;;;;;;5072251;28;20396;-85
2021/08/04 03:08:20;;;;;;;15.65;14.02;;;13.30;89.60;;;;;;5074291;28;20044;-86
2021/08/04 03:10:46;;;;;;;19.25;17.17;;;13.30;89.60;;;;;;5073147;28;20037;-86
2021/08/04 03:13:12;;;;;;;17.35;14.27;;;13.30;89.60;;;;;;5072962;28;20021;-86
2021/08/04 03:15:37;;;;;;;16.45;14.27;;;13.30;89.80;;;;;;5074066;28;20046;-86
2021/08/04 03:18:03;;;;;;;15.82;13.82;;;13.30;89.80;;;;;;5073986;28;20029;-85
2021/08/04 03:20:28;;;;;;;16.02;14.32;;;13.30;89.90;;;;;;5073143;28;20559;-85
2021/08/04 03:22:54;;;;;;;19.40;14.18;;;13.30;89.80;;;;;;5074304;28;20084;-86
2021/08/04 03:25:20;;;;;;;15.73;14.02;;;13.30;89.80;;;;;;5074225;28;20029;-86
2021/08/04 03:27:46;;;;;;;20.77;14.57;;;13.30;89.70;;;;;;5056247;28;20037;-86
2021/08/04 03:30:12;;;;;;;16.10;13.65;;;13.30;89.70;;;;;;5056658;28;20469;-80
2021/08/04 03:32:38;;;;;;;17.63;13.65;;;13.20;89.70;;;;;;5073146;28;20023;-79
2021/08/04 03:35:08;;;;;;;20.27;16.77;;;13.20;89.70;;;;;;5056182;28;20029;-79
2021/08/04 03:37:33;;;;;;;17.13;14.50;;;13.20;89.80;;;;;;5073173;28;20024;-79
2021/08/04 03:39:59;;;;;;;18.30;14.18;;;13.20;89.90;;;;;;5073780;28;20027;-78
2021/08/04 03:42:25;;;;;;;16.00;13.50;;;13.20;89.90;;;;;;5073563;28;20044;-78
2021/08/04 03:44:51;;;;;;;16.30;14.45;;;13.20;89.90;;;;;;5072449;28;20103;-78
2021/08/04 03:47:16;;;;;;;14.68;13.10;;;13.20;89.70;;;;;;5055796;28;20047;-77
2021/08/04 03:49:42;;;;;;;16.40;13.10;;;13.10;89.60;;;;;;5072268;28;20033;-77
2021/08/04 03:52:07;;;;;;;15.10;12.95;;;13.10;89.40;;;;;;5072319;28;20606;-78
2021/08/04 03:54:33;;;;;;;16.52;13.25;;;13.10;89.50;;;;;;5072017;28;20428;-78
2021/08/04 03:56:59;;;;;;;18.35;13.45;;;13.10;89.50;;;;;;5072201;28;20028;-78
2021/08/04 03:59:24;;;;;;;13.80;11.98;;;13.10;89.60;;;;;;5072321;28;20040;-78
2021/08/04 04:01:50;;;;;;;14.82;12.88;;;13.10;89.70;;;;;;5073687;28;20417;-77
2021/08/04 04:04:16;;;;;;;18.88;14.13;;;13.00;89.40;;;;;;5073698;28;20503;-77
2021/08/04 04:06:41;;;;;;;16.98;13.13;;;13.00;89.30;;;;;;5071946;28;20059;-77
2021/08/04 04:09:07;;;;;;;15.02;11.38;;;13.00;89.30;;;;;;5064326;28;20063;-77
2021/08/04 04:11:33;;;;;;;13.30;11.70;;;13.00;89.30;;;;;;5051670;28;20081;-77
2021/08/04 04:13:58;;;;;;;16.15;13.30;;;13.00;89.30;;;;;;5061152;28;20033;-77
2021/08/04 04:16:24;;;;;;;16.05;14.07;;;13.00;89.10;;;;;;5071761;28;20090;-77
2021/08/04 04:18:50;;;;;;;22.33;14.38;;;13.00;88.90;;;;;;5072140;28;20032;-77
2021/08/04 04:21:16;;;;;;;18.27;14.05;;;12.90;88.80;;;;;;5072105;28;20033;-77
2021/08/04 04:23:41;;;;;;;16.00;13.57;;;12.80;89.00;;;;;;5071951;28;20028;-77
2021/08/04 04:26:07;;;;;;;19.63;14.32;;;12.80;89.00;;;;;;5069541;28;20393;-77
2021/08/04 04:28:33;;;;;;;16.85;14.00;;;12.80;89.20;;;;;;5052129;28;20028;-85
2021/08/04 04:30:59;;;;;;;16.42;14.52;;;12.70;89.30;;;;;;5053289;28;20028;-85
2021/08/04 04:33:24;;;;;;;15.32;13.73;;;12.70;89.30;;;;;;5035473;28;20674;-85
2021/08/04 04:35:50;;;;;;;16.95;12.85;;;12.80;89.30;;;;;;5058850;28;20036;-85
2021/08/04 04:38:16;;;;;;;16.40;14.70;;;12.80;89.30;;;;;;5073327;28;20117;-86
2021/08/04 04:40:42;;;;;;;21.60;14.75;;;12.70;89.40;;;;;;5071897;28;20488;-85
2021/08/04 04:43:07;;;;;;;17.48;15.00;;;12.80;89.50;;;;;;5072013;28;20111;-85
2021/08/04 04:45:33;;;;;;;19.77;17.65;;;12.80;89.70;;;;;;5071743;28;20024;-86
2021/08/04 04:47:59;;;;;;;18.00;14.85;;;12.80;89.80;;;;;;5072028;28;20033;-85
2021/08/04 04:50:24;;;;;;;18.52;14.27;;;12.80;89.90;;;;;;5073151;28;20025;-85
2021/08/04 04:52:50;;;;;;;18.15;16.10;;;12.80;90.00;;;;;;5073185;28;20017;-86
2021/08/04 04:55:16;;;;;;;20.05;15.65;;;12.80;90.10;;;;;;5071800;28;20035;-85
2021/08/04 04:57:42;;;;;;;19.58;15.80;;;12.90;90.10;;;;;;5073196;28;20029;-85
2021/08/04 05:00:09;;;;;;;21.60;16.50;;;12.90;90.20;;;;;;5073010;28;20029;-85
2021/08/04 05:02:39;;;;;;;19.33;17.33;;;12.90;90.20;;;;;;5071677;28;20489;-85
2021/08/04 05:05:05;;;;;;;21.95;18.75;;;13.00;90.30;;;;;;5070410;28;20036;-85
2021/08/04 05:07:31;;;;;;;22.80;19.13;;;13.10;90.40;;;;;;5051346;28;20056;-85
2021/08/04 05:09:56;;;;;;;22.33;18.27;;;13.10;90.40;;;;;;5051678;28;20025;-85
2021/08/04 05:12:22;;;;;;;20.42;18.20;;;13.10;90.40;;;;;;5051808;28;20465;-85
2021/08/04 05:14:48;;;;;;;25.38;19.70;;;13.20;90.40;;;;;;5063737;28;20032;-86
2021/08/04 05:17:13;;;;;;;21.85;19.05;;;13.30;90.40;;;;;;5062012;28;20020;-86
2021/08/04 05:19:40;;;;;;;22.48;19.85;;;13.40;90.50;;;;;;5072702;28;20481;-85
2021/08/04 05:22:05;;;;;;;23.83;19.38;;;13.40;90.50;;;;;;5090193;28;20033;-85
2021/08/04 05:24:31;;;;;;;22.83;20.02;;;13.50;90.50;;;;;;5062975;28;20500;-86
2021/08/04 05:26:56;;;;;;;23.20;20.35;;;13.50;90.50;;;;;;5056581;28;20033;-85
2021/08/04 05:29:22;;;;;;;23.58;21.08;;;13.60;90.50;;;;;;5055389;28;20162;-86
2021/08/04 05:31:47;;;;;;;23.85;20.52;;;13.70;90.60;;;;;;5055476;28;20351;-85
2021/08/04 05:34:13;;;;;;;24.77;21.85;;;13.70;90.50;;;;;;5055295;28;20036;-85
2021/08/04 05:36:39;;;;;;;24.73;20.27;;;13.80;90.60;;;;;;5038469;28;20434;-85
2021/08/04 05:39:05;;;;;;;24.77;22.17;;;13.90;90.60;;;;;;5056436;28;20029;-86
2021/08/04 05:41:30;;;;;;;23.92;21.23;;;14.00;90.70;;;;;;5059866;28;20480;-85
2021/08/04 05:43:56;;;;;;;32.35;22.30;;;14.00;90.70;;;;;;5074845;28;20477;-86
2021/08/04 05:46:21;;;;;;;26.40;23.60;;;14.10;90.70;;;;;;5074783;28;20029;-86
2021/08/04 05:48:47;;;;;;;27.75;22.23;;;14.20;90.70;;;;;;5076008;28;20037;-85
2021/08/04 05:51:13;;;;;;;21.35;19.05;;;14.20;90.70;;;;;;5091791;28;20024;-85
2021/08/04 05:53:38;;;;;;;23.20;18.88;;;14.30;90.70;;;;;;5076320;28;20447;-85
2021/08/04 05:56:04;;;;;;;23.23;19.38;;;14.40;90.70;;;;;;5075825;28;20111;-85
2021/08/04 05:58:30;;;;;;;23.75;20.98;;;14.50;90.70;;;;;;5074890;28;20048;-85
2021/08/04 06:00:56;;;;;;;25.20;19.80;;;14.60;90.70;;;;;;5075904;28;20024;-86
2021/08/04 06:03:21;;;;;;;25.80;22.40;;;14.70;90.60;;;;;;5074609;28;20599;-85
2021/08/04 06:05:47;;;;;;;23.42;20.92;;;14.80;90.60;;;;;;5075614;28;20111;-86
2021/08/04 06:08:13;;;;;;;26.95;22.15;;;14.80;90.60;;;;;;5075600;28;20145;-86
2021/08/04 06:10:39;;;;;;;27.38;24.20;;;14.90;90.60;;;;;;5075905;28;20067;-85
2021/08/04 06:13:05;;;;;;;28.02;23.70;;;15.00;90.60;;;;;;5075896;28;20056;-86
2021/08/04 06:15:31;;;;;;;24.83;20.77;;;15.10;90.60;;;;;;5057802;28;20025;-86
2021/08/04 06:17:56;;;;;;;22.05;18.45;;;15.20;90.60;;;;;;5075367;28;20366;-86
2021/08/04 06:20:22;;;;;;;27.33;19.27;;;15.30;90.60;;;;;;5074387;28;20465;-86
2021/08/04 06:22:48;;;;;;;20.88;17.98;;;15.30;90.50;;;;;;5075509;28;20028;-86
2021/08/04 06:25:13;;;;;;;25.77;18.95;;;15.40;90.30;;;;;;5075343;28;20031;-86
2021/08/04 06:27:39;;;;;;;26.25;18.30;;;15.50;90.20;;;;;;5074269;28;20078;-86
2021/08/04 06:30:06;;;;;;;22.80;19.08;;;15.60;90.20;;;;;;5074182;28;20025;-86
2021/08/04 06:32:32;;;;;;;23.65;17.60;;;15.70;90.10;;;;;;5073781;28;20033;-86
2021/08/04 06:34:57;;;;;;;20.95;18.77;;;15.80;90.10;;;;;;5075209;28;20035;-86
2021/08/04 06:37:23;;;;;;;25.25;20.52;;;15.90;90.10;;;;;;5075224;28;20029;-86
2021/08/04 06:39:49;;;;;;;25.30;19.17;;;16.00;90.10;;;;;;5056742;28;20037;-86
2021/08/04 06:42:15;;;;;;;25.80;18.90;;;16.10;90.10;;;;;;5074149;28;20044;-86
2021/08/04 06:44:40;;;;;;;27.55;22.85;;;16.20;90.10;;;;;;5074248;28;20024;-87
2021/08/04 06:47:07;;;;;;;20.08;17.98;;;16.30;90.00;;;;;;5074228;28;20358;-87
2021/08/04 06:49:33;;;;;;;21.58;19.27;;;16.40;90.00;;;;;;5074550;28;20036;-86
2021/08/04 06:51:59;;;;;;;23.40;19.70;;;16.50;89.70;;;;;;5074123;28;20028;-86
2021/08/04 06:54:25;;;;;;;23.77;19.63;;;16.60;89.40;;;;;;5074294;28;20031;-87
2021/08/04 06:56:54;;;;;;;26.27;19.23;;;16.70;89.00;;;;;;5073154;28;20496;-86
2021/08/04 06:59:19;;;;;;;;;;;16.80;88.30;;;;;;5061524;28;20044;-87
2021/08/04 07:01:45;;;;;;;24.70;17.98;;;16.90;87.80;;;;;;5046967;28;20288;-86
2021/08/04 07:04:11;;;;;;;22.40;17.38;;;17.00;87.80;;;;;;5062095;28;20025;-86
2021/08/04 07:06:37;;;;;;;21.92;17.73;;;17.10;87.30;;;;;;5067586;28;20119;-87
2021/08/04 07:09:03;;;;;;;20.25;15.88;;;17.20;86.80;;;;;;5074416;28;20066;-87
2021/08/04 07:11:28;;;;;;;20.23;15.95;;;17.40;86.30;;;;;;5055922;28;20064;-86
2021/08/04 07:13:55;;;;;;;21.15;14.15;;;17.50;85.90;;;;;;5072710;28;20028;-86
2021/08/04 07:16:21;;;;;;;16.75;14.20;;;17.60;85.30;;;;;;5079105;28;20424;-85
2021/08/04 07:18:46;;;;;;;19.77;15.85;;;17.70;84.90;;;;;;5074347;28;20032;-85
2021/08/04 07:21:13;;;;;;;20.15;17.23;;;17.90;84.60;;;;;;5056489;28;20038;-85
2021/08/04 07:23:40;;;;;;;18.73;16.60;;;18.00;84.20;;;;;;5073096;28;20033;-84
2021/08/04 07:26:06;;;;;;;22.00;19.08;;;18.00;83.90;;;;;;5072667;28;20040;-85
2021/08/04 07:28:32;;;;;;;25.38;22.40;;;18.10;83.70;;;;;;5074334;28;20025;-85
2021/08/04 07:30:58;;;;;;;26.33;22.48;;;18.10;83.90;;;;;;5073077;28;20757;-85
2021/08/04 07:33:23;;;;;;;23.70;21.10;;;18.20;83.80;;;;;;5072977;28;20032;-85
2021/08/04 07:35:49;;;;;;;21.92;19.58;;;18.30;83.80;;;;;;5072572;28;20550;-86
2021/08/04 07:38:15;;;;;;;18.52;15.98;;;18.40;83.80;;;;;;5067723;28;20112;-87
2021/08/04 07:40:42;;;;;;;22.33;17.58;;;18.50;83.40;;;;;;5039316;28;20029;-87
2021/08/04 07:43:08;;;;;;;21.25;14.65;;;18.60;82.60;;;;;;5056604;28;20025;-87
2021/08/04 07:45:34;;;;;;;16.85;14.38;;;18.80;82.10;;;;;;5072231;28;20027;-87
2021/08/04 07:47:59;;;;;;;18.00;13.80;;;18.90;81.40;;;;;;5072426;28;20486;-87
2021/08/04 07:50:25;;;;;;;18.35;14.55;;;19.10;80.90;;;;;;5072995;28;20060;-87
2021/08/04 07:52:51;;;;;;;16.52;14.10;;;19.20;80.50;;;;;;5071543;28;20024;-87
2021/08/04 07:55:17;;;;;;;17.60;12.88;;;19.40;79.80;;;;;;5055781;28;20032;-87
2021/08/04 07:57:43;;;;;;;14.63;11.25;;;19.50;79.30;;;;;;5072086;28;20087;-87
2021/08/04 08:00:09;;;;;;;10.13;8.55;;;19.60;78.50;;;;;;5052731;28;20445;-87
2021/08/04 08:02:35;;;;;;;10.52;8.07;;;19.80;76.90;;;;;;5053713;28;20024;-88
2021/08/04 08:05:01;;;;;;;9.15;7.18;;;19.80;75.60;;;;;;5055839;28;20024;-87
2021/08/04 08:07:26;;;;;;;8.52;6.68;;;19.90;75.30;;;;;;5073714;28;20616;-87
2021/08/04 08:09:52;;;;;;;8.32;7.15;;;20.00;74.60;;;;;;5073826;28;20032;-87
2021/08/04 08:12:18;;;;;;;7.90;6.53;;;20.10;74.20;;;;;;5055973;28;20473;-87
2021/08/04 08:14:44;;;;;;;9.02;6.70;;;20.20;74.00;;;;;;5055730;28;20470;-87
2021/08/04 08:17:10;;;;;;;10.10;6.40;;;20.30;73.80;;;;;;5073753;28;20036;-87
2021/08/04 08:19:36;;;;;;;11.13;6.13;;;20.30;72.40;;;;;;5055698;28;20036;-87
2021/08/04 08:22:02;;;;;;;9.65;5.30;;;20.40;71.80;;;;;;5055780;28;20036;-87
2021/08/04 08:24:27;;;;;;;10.30;5.20;;;20.50;69.40;;;;;;5072376;28;20025;-88
2021/08/04 08:26:53;;;;;;;9.32;5.93;;;20.50;69.60;;;;;;5055522;28;20028;-87
2021/08/04 08:29:19;;;;;;;10.18;5.90;;;20.60;69.70;;;;;;5055469;28;20024;-87
2021/08/04 08:31:45;;;;;;;7.63;5.22;;;20.70;68.60;;;;;;5055750;28;20391;-88
2021/08/04 08:34:10;;;;;;;9.35;5.60;;;20.70;67.50;;;;;;5073674;28;20029;-88
2021/08/04 08:36:37;;;;;;;6.13;4.55;;;20.70;65.70;;;;;;5072502;28;20040;-88
2021/08/04 08:39:06;;;;;;;7.57;5.53;;;20.70;66.10;;;;;;5072387;28;20082;-88
2021/08/04 08:41:31;;;;;;;9.88;5.18;;;20.80;65.70;;;;;;5073754;28;20043;-88
2021/08/04 08:43:57;;;;;;;10.00;5.57;;;20.90;66.10;;;;;;5073687;28;20120;-87
2021/08/04 08:46:32;;;;;;;8.25;5.20;;;20.90;65.70;;;;;;5055611;28;20060;-88
2021/08/04 08:48:59;;;;;;;7.28;5.25;;;21.00;64.70;;;;;;5071698;28;20044;-88
2021/08/04 08:51:25;;;;;;;7.85;5.53;;;21.10;65.40;;;;;;5073492;28;20031;-89
2021/08/04 08:53:52;;;;;;;7.15;4.93;;;21.20;66.20;;;;;;5073608;28;20021;-89
2021/08/04 08:56:20;;;;;;;7.53;6.07;;;21.30;65.60;;;;;;5074664;28;20029;-88
2021/08/04 08:58:52;;;;;;;7.35;5.45;;;21.50;64.70;;;;;;5077230;28;20032;-85
2021/08/04 09:01:18;;;;;;;10.52;6.00;;;21.50;64.20;;;;;;5075878;28;20033;-85
2021/08/04 09:03:43;;;;;;;6.35;5.28;;;21.60;65.30;;;;;;5075323;28;20035;-85
2021/08/04 09:06:09;;;;;;;5.55;5.05;;;21.70;64.60;;;;;;5075227;28;20437;-83
2021/08/04 09:08:37;;;;;;;9.00;5.75;;;21.80;64.50;;;;;;5075131;28;20059;-82
2021/08/04 09:11:18;;;;;;;6.68;5.97;;;21.90;63.90;;;;;;5075669;28;20036;-84
2021/08/04 09:13:46;;;;;;;11.68;6.85;;;22.00;63.80;;;;;;5076996;28;20103;-82
2021/08/04 09:16:16;;;;;;;;;;;22.10;63.80;;;;;;5076199;28;20366;-83
2021/08/04 09:18:53;;;;;;;10.18;5.55;;;22.10;64.30;;;;;;5075388;28;20284;-83
2021/08/04 09:21:20;;;;;;;10.55;5.97;;;21.90;63.20;;;;;;5059125;28;20392;-83
2021/08/04 09:23:54;;;;;;;11.02;6.07;;;21.60;64.60;;;;;;5075496;28;20062;-83
2021/08/04 09:26:25;;;;;;;10.15;5.88;;;21.40;65.80;;;;;;5075241;28;20023;-83
2021/08/04 09:29:01;;;;;;;8.32;5.57;;;21.40;64.80;;;;;;5076657;28;20066;-84
2021/08/04 09:31:51;;;;;;;8.18;4.93;;;21.60;65.20;;;;;;5092100;28;20044;-83
2021/08/04 09:34:34;;;;;;;12.32;6.55;;;21.90;64.50;;;;;;5066941;28;20028;-83
2021/08/04 09:37:11;;;;;;;10.15;6.15;;;22.20;60.80;;;;;;5056302;28;20025;-83
2021/08/04 09:39:42;;;;;;;9.68;6.38;;;22.30;62.10;;;;;;5057517;28;20496;-83
2021/08/04 09:42:09;;;;;;;10.18;6.45;;;22.50;62.80;;;;;;5074651;28;20032;-85
2021/08/04 09:44:35;;;;;;;10.13;6.85;;;22.50;62.70;;;;;;5075725;28;20102;-84
2021/08/04 09:47:06;;;;;;;10.38;7.25;;;22.50;62.80;;;;;;5057845;28;20099;-84
2021/08/04 09:49:32;;;;;;;11.07;6.85;;;22.20;63.90;;;;;;5075976;28;20025;-84
2021/08/04 09:52:06;;;;;;;8.57;6.10;;;21.90;64.30;;;;;;5074608;28;20362;-85
2021/08/04 09:54:40;;;;;;;10.00;6.78;;;21.70;64.70;;;;;;5063421;28;20028;-83
2021/08/04 09:57:06;;;;;;;9.85;6.97;;;21.60;63.80;;;;;;5073931;28;20493;-84
2021/08/04 09:59:32;;;;;;;9.02;6.82;;;21.70;63.70;;;;;;5075378;28;20028;-84
2021/08/04 10:01:59;;;;;;;11.45;7.00;;;21.80;64.30;;;;;;5074647;28;20029;-84
2021/08/04 10:04:26;;;;;;;9.93;6.93;;;21.60;64.10;;;;;;5075860;28;20035;-84
2021/08/04 10:07:06;;;;;;;9.40;8.02;;;21.50;64.90;;;;;;5075332;28;20044;-84
2021/08/04 10:09:32;;;;;;;12.75;6.93;;;21.40;65.00;;;;;;5075761;28;20743;-83
2021/08/04 10:11:58;;;;;;;9.38;7.18;;;21.30;65.60;;;;;;5074567;28;20029;-84
2021/08/04 10:14:24;;;;;;;10.60;7.38;;;21.50;65.20;;;;;;5075535;28;20036;-84
2021/08/04 10:16:51;;;;;;;7.25;6.50;;;21.60;65.10;;;;;;5074456;28;20115;-84
2021/08/04 10:19:17;;;;;;;11.20;7.70;;;21.70;64.90;;;;;;5075581;28;20519;-84
2021/08/04 10:21:47;;;;;;;14.30;8.00;;;21.60;64.50;;;;;;5074117;28;20028;-85
2021/08/04 10:24:13;;;;;;;12.55;7.68;;;21.40;64.70;;;;;;5074236;28;20029;-84
2021/08/04 10:26:40;;;;;;;8.95;7.20;;;21.30;64.80;;;;;;5075197;28;20031;-82
2021/08/04 10:29:09;;;;;;;9.45;6.70;;;21.10;64.70;;;;;;5075568;28;20032;-83
2021/08/04 10:31:36;;;;;;;14.50;7.72;;;20.90;65.40;;;;;;5075439;28;20043;-83
2021/08/04 10:34:04;;;;;;;9.32;6.57;;;20.80;66.40;;;;;;5074206;28;20389;-83
2021/08/04 10:36:50;;;;;;;14.17;7.83;;;20.80;66.50;;;;;;5073280;28;20040;-83
2021/08/04 10:39:19;;;;;;;8.10;6.88;;;20.70;65.90;;;;;;5074022;28;20040;-84
2021/08/04 10:42:06;;;;;;;9.73;6.82;;;20.80;67.00;;;;;;5073745;28;20532;-85
2021/08/04 10:44:32;;;;;;;10.57;5.82;;;20.80;68.30;;;;;;5073720;28;20033;-83
2021/08/04 10:46:59;;;;;;;9.20;6.97;;;20.90;68.20;;;;;;5073165;28;20071;-83
2021/08/04 10:49:28;;;;;;;9.70;6.88;;;20.90;68.20;;;;;;5074488;28;20024;-83
2021/08/04 10:51:59;;;;;;;10.20;6.72;;;21.10;67.30;;;;;;5073865;28;20031;-83
2021/08/04 10:54:25;;;;;;;11.70;7.57;;;21.20;66.60;;;;;;5074830;28;20813;-84
2021/08/04 10:56:53;;;;;;;9.35;7.40;;;21.30;66.70;;;;;;5074682;28;20036;-83
2021/08/04 10:59:29;;;;;;;7.45;6.63;;;21.50;65.90;;;;;;5074963;28;20499;-84
2021/08/04 11:02:01;;;;;;;10.77;7.10;;;21.70;65.70;;;;;;5074753;28;20043;-83
2021/08/04 11:04:30;;;;;;;10.90;7.60;;;22.10;64.00;;;;;;5074562;28;20016;-83
2021/08/04 11:07:13;;;;;;;10.40;7.30;;;22.20;62.40;;;;;;5073133;28;20516;-84
2021/08/04 11:09:39;;;;;;;8.75;7.22;;;22.30;60.90;;;;;;5074514;28;20037;-88
2021/08/04 11:12:09;;;;;;;9.85;6.50;;;22.20;61.70;;;;;;5057115;28;20190;-85
2021/08/04 11:14:36;;;;;;;9.02;6.95;;;22.20;62.50;;;;;;5074502;28;20052;-85
2021/08/04 11:17:03;;;;;;;8.27;6.60;;;22.20;62.00;;;;;;5074357;28;20025;-84
2021/08/04 11:19:34;;;;;;;9.00;7.05;;;22.40;61.80;;;;;;5073575;28;20118;-85
2021/08/04 11:22:22;;;;;;;9.45;7.38;;;22.70;60.20;;;;;;5074489;28;20115;-85
2021/08/04 11:24:55;;;;;;;10.27;7.13;;;23.10;60.30;;;;;;5073075;28;20024;-86
2021/08/04 11:27:22;;;;;;;9.13;7.03;;;23.30;58.30;;;;;;5073814;28;20077;-86
2021/08/04 11:29:48;;;;;;;8.30;5.78;;;23.60;57.90;;;;;;5072970;28;20016;-86
2021/08/04 11:32:19;;;;;;;7.07;5.68;;;23.60;57.80;;;;;;5072341;28;20507;-84
2021/08/04 11:34:45;;;;;;;8.10;6.43;;;23.50;58.40;;;;;;5073777;28;20027;-84
2021/08/04 11:37:11;;;;;;;8.70;6.28;;;23.30;58.90;;;;;;5072515;28;20025;-81
2021/08/04 11:39:50;;;;;;;8.38;7.32;;;23.10;60.50;;;;;;5089421;28;20059;-81
2021/08/04 11:42:16;;;;;;;13.50;7.75;;;22.90;58.50;;;;;;5073818;28;20111;-81
2021/08/04 11:44:43;;;;;;;9.88;7.47;;;22.70;58.20;;;;;;5068883;28;20489;-81
2021/08/04 11:47:10;;;;;;;10.65;7.20;;;22.70;59.70;;;;;;5053731;28;20025;-81
2021/08/04 11:49:44;;;;;;;9.98;8.00;;;22.60;61.40;;;;;;5053660;28;20029;-81
2021/08/04 11:52:18;;;;;;;11.07;7.70;;;22.60;59.80;;;;;;5053706;28;20020;-81
2021/08/04 11:54:46;;;;;;;9.48;8.00;;;22.60;59.90;;;;;;5053648;28;20024;-81
2021/08/04 11:57:23;;;;;;;10.15;7.05;;;22.60;59.70;;;;;;5053851;28;20029;-81
2021/08/04 11:59:51;;;;;;;9.10;7.70;;;22.70;60.70;;;;;;5053742;28;20025;-81
2021/08/04 12:02:20;;;;;;;9.13;7.10;;;23.00;58.90;;;;;;5053910;28;20049;-81
2021/08/04 12:04:52;;;;;;;8.82;7.78;;;23.40;58.10;;;;;;5053662;28;20075;-79
2021/08/04 12:07:25;;;;;;;8.80;7.90;;;23.40;58.00;;;;;;5052263;28;20045;-79
2021/08/04 12:09:51;;;;;;;12.30;6.72;;;23.40;58.80;;;;;;5052661;28;20632;-79
2021/08/04 12:12:22;;;;;;;12.88;8.02;;;23.30;58.90;;;;;;5035684;28;20036;-79
2021/08/04 12:14:49;;;;;;;10.63;7.45;;;23.20;57.90;;;;;;5071181;28;20031;-79
2021/08/04 12:17:27;;;;;;;8.93;6.20;;;23.10;58.60;;;;;;5072295;28;20029;-79
2021/08/04 12:19:54;;;;;;;8.05;6.40;;;23.10;59.00;;;;;;5073502;28;20017;-79
2021/08/04 12:22:26;;;;;;;7.07;6.10;;;23.30;59.40;;;;;;5055383;28;20028;-79
2021/08/04 12:24:58;;;;;;;6.85;5.75;;;23.50;57.70;;;;;;5073480;28;20028;-79
2021/08/04 12:27:38;;;;;;;7.53;6.22;;;23.80;58.30;;;;;;5071901;28;20028;-79
2021/08/04 12:30:33;;;;;;;13.20;6.78;;;24.00;56.60;;;;;;5071353;28;20419;-79
2021/08/04 12:33:16;;;;;;;6.78;6.10;;;23.90;55.80;;;;;;5068846;28;20033;-79
2021/08/04 12:36:01;;;;;;;11.57;6.75;;;23.60;58.30;;;;;;5072923;28;20028;-81
2021/08/04 12:38:27;;;;;;;7.60;5.63;;;23.40;57.50;;;;;;5073061;28;20103;-82